Weather at Miami County Airport

Public forecast

Using degrees Fahrenheit for public forecast. Weather courtesy of forecast.io.

Closest aviation weather report (METAR) to Miami County Airport

Closest report is New Century Aircenter Airport, 17.5 nm (32.4 km) N. Retrieved 2021/09/27 21:53 UTC (48 minutes ago):

KIXD 272153Z 19010G19KT 10SM CLR 32/12 A2985 RMK AO2 SLP097 T03170122

Closest aviation forecast (TAF) to Miami County Airport

Closest forecast is New Century Aircenter Airport, 17.5 nm (32.4 km) N. Retrieved 2021/09/27 18:22 UTC (4 hours ago):

TAF KIXD 271720Z 2718/2818 22014G23KT P6SM SKC FM272300 18007KT P6SM SKC